createdAt,value
2023-05-17T00:00:52.364Z,8.20
2023-05-17T00:03:45.637Z,8.20
2023-05-17T00:06:35.170Z,8.10
2023-05-17T00:09:38.754Z,8.10
2023-05-17T00:12:30.561Z,8.00
2023-05-17T00:15:40.579Z,8.00
2023-05-17T00:18:32.208Z,8.00
2023-05-17T00:21:29.760Z,7.90
2023-05-17T00:24:20.046Z,7.90
2023-05-17T00:27:13.646Z,7.90
2023-05-17T00:30:10.495Z,7.80
2023-05-17T00:33:23.128Z,7.80
2023-05-17T00:39:54.194Z,7.80
2023-05-17T00:46:08.488Z,7.80
2023-05-17T00:51:58.671Z,7.80
2023-05-17T00:54:35.786Z,7.70
2023-05-17T01:00:06.093Z,7.70
2023-05-17T01:03:04.152Z,7.60
2023-05-17T01:06:01.008Z,7.60
2023-05-17T01:12:36.548Z,7.50
2023-05-17T01:18:59.736Z,7.40
2023-05-17T01:22:10.321Z,7.40
2023-05-17T01:25:10.936Z,7.40
2023-05-17T01:28:25.383Z,7.40
2023-05-17T01:34:28.349Z,7.30
2023-05-17T01:37:23.202Z,7.30
2023-05-17T01:40:23.369Z,7.30
2023-05-17T01:43:29.081Z,7.30
2023-05-17T01:46:17.724Z,7.30
2023-05-17T01:52:44.383Z,7.20
2023-05-17T01:55:46.352Z,7.20
2023-05-17T01:58:50.874Z,7.10
2023-05-17T02:01:45.674Z,7.20
2023-05-17T02:07:48.303Z,7.00
2023-05-17T02:10:54.340Z,7.00
2023-05-17T02:14:07.058Z,6.90
2023-05-17T02:16:51.010Z,6.80
2023-05-17T02:19:45.021Z,6.80
2023-05-17T02:22:24.214Z,6.70
2023-05-17T02:28:12.624Z,6.60
2023-05-17T02:31:16.683Z,6.60
2023-05-17T02:34:05.006Z,6.50
2023-05-17T02:37:06.081Z,6.50
2023-05-17T02:39:51.775Z,6.50
2023-05-17T02:49:17.193Z,6.50
2023-05-17T02:52:05.386Z,6.50
2023-05-17T02:55:15.124Z,6.50
2023-05-17T02:58:24.818Z,6.60
2023-05-17T03:00:58.454Z,6.70
2023-05-17T03:04:02.582Z,6.70
2023-05-17T03:10:06.899Z,6.70
2023-05-17T03:12:50.217Z,6.70
2023-05-17T03:15:41.645Z,6.70
2023-05-17T03:21:39.587Z,6.70
2023-05-17T03:24:39.981Z,6.70
2023-05-17T03:27:22.624Z,6.70
2023-05-17T03:33:03.949Z,6.70
2023-05-17T03:35:54.260Z,6.80
2023-05-17T03:38:59.565Z,6.70
2023-05-17T03:41:41.237Z,6.70
2023-05-17T03:44:28.427Z,6.70
2023-05-17T03:47:09.036Z,6.70
2023-05-17T03:49:59.584Z,6.70
2023-05-17T03:52:42.733Z,6.70
2023-05-17T03:55:44.898Z,6.70
2023-05-17T03:58:51.401Z,6.70
2023-05-17T04:01:41.593Z,6.80
2023-05-17T04:04:43.059Z,6.80
2023-05-17T04:07:25.253Z,6.80
2023-05-17T04:13:46.888Z,6.80
2023-05-17T04:16:46.401Z,6.80
2023-05-17T04:19:48.402Z,6.90
2023-05-17T04:22:36.020Z,6.90
2023-05-17T04:25:26.380Z,7.00
2023-05-17T04:28:26.862Z,7.10
2023-05-17T04:34:59.957Z,7.20
2023-05-17T04:37:50.996Z,7.30
2023-05-17T04:43:51.953Z,7.50
2023-05-17T04:46:37.074Z,7.50
2023-05-17T04:49:18.200Z,7.60
2023-05-17T04:52:27.233Z,7.70
2023-05-17T04:55:08.769Z,7.70
2023-05-17T04:57:52.708Z,7.80
2023-05-17T05:00:30.713Z,7.90
2023-05-17T05:03:05.607Z,8.00
2023-05-17T05:05:48.614Z,8.00
2023-05-17T05:08:49.776Z,8.20
2023-05-17T05:11:29.858Z,8.20
2023-05-17T05:17:55.071Z,8.40
2023-05-17T05:24:01.887Z,8.60
2023-05-17T05:27:18.664Z,8.60
2023-05-17T05:33:33.354Z,8.80
2023-05-17T05:36:18.407Z,8.90
2023-05-17T05:39:51.827Z,9.00
2023-05-17T05:46:00.381Z,9.40
2023-05-17T05:48:57.861Z,9.50
2023-05-17T05:51:53.583Z,9.60
2023-05-17T05:54:50.425Z,9.70
2023-05-17T05:57:46.848Z,9.90
2023-05-17T06:00:43.553Z,9.90
2023-05-17T06:03:50.005Z,9.90
2023-05-17T06:06:57.813Z,9.80
2023-05-17T06:13:16.868Z,9.60
2023-05-17T06:22:46.747Z,10.20
2023-05-17T06:25:53.023Z,10.70
2023-05-17T06:29:01.951Z,11.10
2023-05-17T06:43:10.475Z,12.70
2023-05-17T06:55:35.411Z,13.30
2023-05-17T06:58:33.330Z,12.90
2023-05-17T07:04:51.910Z,12.30
2023-05-17T07:07:47.149Z,12.00
2023-05-17T07:10:34.881Z,11.90
2023-05-17T07:13:28.771Z,11.80
2023-05-17T07:16:40.772Z,11.80
2023-05-17T07:19:21.170Z,11.80
2023-05-17T07:22:09.075Z,11.70
2023-05-17T07:25:07.381Z,11.70
2023-05-17T07:31:30.857Z,11.70
2023-05-17T07:34:36.968Z,12.10
2023-05-17T07:40:52.310Z,12.60
2023-05-17T07:44:09.347Z,12.30
2023-05-17T07:47:19.828Z,12.40
2023-05-17T07:50:03.926Z,12.80
2023-05-17T07:52:50.411Z,13.20
2023-05-17T07:56:14.651Z,13.20
2023-05-17T07:59:13.733Z,12.80
2023-05-17T08:02:12.347Z,12.30
2023-05-17T08:08:51.735Z,12.30
2023-05-17T08:25:24.403Z,13.70
2023-05-17T08:28:45.102Z,13.50
2023-05-17T08:31:56.052Z,13.70
2023-05-17T08:35:15.940Z,14.00
2023-05-17T08:38:21.408Z,14.10
2023-05-17T08:45:12.614Z,14.40
2023-05-17T08:48:04.796Z,15.10
2023-05-17T08:54:38.508Z,16.80
2023-05-17T08:57:51.759Z,17.10
2023-05-17T09:00:54.746Z,16.90
2023-05-17T09:03:44.801Z,16.60
2023-05-17T09:16:05.474Z,15.70
2023-05-17T09:19:08.716Z,15.40
2023-05-17T09:22:30.298Z,15.30
2023-05-17T09:25:32.213Z,15.10
2023-05-17T09:28:16.118Z,15.00
2023-05-17T09:31:22.610Z,15.30
2023-05-17T09:38:04.725Z,15.70
2023-05-17T09:47:50.688Z,16.10
2023-05-17T09:50:41.000Z,16.60
2023-05-17T10:00:32.047Z,15.90
2023-05-17T10:03:41.866Z,15.90
2023-05-17T10:09:51.750Z,15.70
2023-05-17T10:13:11.136Z,15.40
2023-05-17T10:16:26.091Z,15.30
2023-05-17T10:19:15.399Z,15.40
2023-05-17T10:22:25.179Z,15.50
2023-05-17T10:25:20.415Z,15.50
2023-05-17T10:28:29.572Z,15.50
2023-05-17T10:31:24.416Z,15.50
2023-05-17T10:34:33.345Z,16.00
2023-05-17T10:37:21.832Z,16.40
2023-05-17T10:40:03.640Z,16.10
2023-05-17T10:42:52.473Z,16.20
2023-05-17T10:46:03.723Z,16.40
2023-05-17T10:48:54.692Z,16.80
2023-05-17T10:55:27.973Z,17.70
2023-05-17T11:05:50.797Z,17.70
2023-05-17T11:18:49.645Z,17.10
2023-05-17T11:22:01.632Z,16.90
2023-05-17T11:24:40.334Z,17.30
2023-05-17T11:27:45.630Z,18.10
2023-05-17T11:30:46.917Z,17.90
2023-05-17T11:33:34.361Z,18.40
2023-05-17T11:36:41.055Z,17.60
2023-05-17T11:43:07.725Z,18.20
2023-05-17T11:46:27.529Z,18.90
2023-05-17T11:49:35.665Z,19.00
2023-05-17T11:52:35.869Z,18.60
2023-05-17T11:55:23.806Z,18.30
2023-05-17T11:58:25.333Z,17.90
2023-05-17T12:04:22.586Z,17.60
2023-05-17T12:07:25.866Z,17.90
2023-05-17T12:10:46.282Z,18.10
2023-05-17T12:13:51.443Z,18.30
2023-05-17T12:16:48.700Z,18.40
2023-05-17T12:19:50.946Z,18.50
2023-05-17T12:22:47.403Z,18.20
2023-05-17T12:25:42.213Z,18.50
2023-05-17T12:32:04.768Z,19.20
2023-05-17T12:35:13.045Z,18.40
2023-05-17T12:38:03.823Z,18.20
2023-05-17T12:41:02.205Z,18.80
2023-05-17T12:44:16.961Z,19.00
2023-05-17T12:47:33.670Z,18.80
2023-05-17T12:50:55.143Z,18.90
2023-05-17T12:54:18.676Z,19.30
2023-05-17T12:57:07.791Z,19.70
2023-05-17T13:00:43.666Z,19.80
2023-05-17T13:03:42.821Z,20.00
2023-05-17T13:07:13.506Z,20.30
2023-05-17T13:09:59.630Z,20.40
2023-05-17T13:16:38.442Z,19.60
2023-05-17T13:19:34.316Z,19.70
2023-05-17T13:25:37.681Z,20.30
2023-05-17T13:28:39.965Z,20.40
2023-05-17T13:35:26.142Z,19.30
2023-05-17T13:38:25.936Z,18.70
2023-05-17T13:41:19.134Z,18.40
2023-05-17T13:44:12.380Z,18.20
2023-05-17T13:47:37.414Z,18.10
2023-05-17T13:50:48.528Z,18.40
2023-05-17T13:54:07.376Z,18.50
2023-05-17T13:57:38.386Z,19.20
2023-05-17T14:00:52.584Z,19.80
2023-05-17T14:03:37.195Z,19.70
2023-05-17T14:09:48.559Z,19.20
2023-05-17T14:12:45.719Z,18.80
2023-05-17T14:18:42.267Z,18.10
2023-05-17T14:27:45.413Z,18.00
2023-05-17T14:33:20.734Z,18.30
2023-05-17T14:36:16.132Z,18.30
2023-05-17T14:38:59.034Z,18.50
2023-05-17T14:41:57.430Z,18.60
2023-05-17T14:52:00.680Z,20.20
2023-05-17T14:57:56.495Z,20.60
2023-05-17T15:00:54.164Z,20.00
2023-05-17T15:03:42.387Z,19.90
2023-05-17T15:06:50.723Z,19.40
2023-05-17T15:10:00.468Z,19.20
2023-05-17T15:13:15.910Z,19.40
2023-05-17T15:16:10.280Z,20.10
2023-05-17T15:19:02.618Z,20.80
2023-05-17T15:22:13.140Z,20.90
2023-05-17T15:25:04.393Z,20.50
2023-05-17T15:28:01.988Z,19.80
2023-05-17T15:31:02.059Z,19.60
2023-05-17T15:34:15.778Z,19.20
2023-05-17T15:43:38.809Z,17.60
2023-05-17T15:46:36.705Z,17.20
2023-05-17T15:49:57.188Z,17.00
2023-05-17T15:52:56.397Z,16.80
2023-05-17T15:55:55.455Z,16.30
2023-05-17T15:59:30.463Z,16.10
2023-05-17T16:02:50.844Z,15.90
2023-05-17T16:06:03.631Z,15.80
2023-05-17T16:08:53.280Z,15.70
2023-05-17T16:11:52.134Z,15.60
2023-05-17T16:15:14.782Z,15.60
2023-05-17T16:18:15.760Z,15.30
2023-05-17T16:21:50.409Z,15.10
2023-05-17T16:24:37.896Z,15.10
2023-05-17T16:27:43.128Z,15.00
2023-05-17T16:30:38.857Z,15.00
2023-05-17T16:36:54.595Z,15.10
2023-05-17T16:39:48.061Z,15.20
2023-05-17T16:42:35.284Z,15.40
2023-05-17T16:48:58.872Z,15.50
2023-05-17T16:52:03.077Z,15.60
2023-05-17T16:55:01.689Z,15.60
2023-05-17T16:58:06.554Z,15.50
2023-05-17T17:01:07.865Z,15.30
2023-05-17T17:04:13.042Z,15.40
2023-05-17T17:07:31.036Z,15.50
2023-05-17T17:10:54.149Z,15.40
2023-05-17T17:14:01.214Z,15.40
2023-05-17T17:17:02.206Z,15.30
2023-05-17T17:19:46.845Z,15.30
2023-05-17T17:22:16.366Z,15.10
2023-05-17T17:24:44.746Z,15.00
2023-05-17T17:27:14.969Z,14.80
2023-05-17T17:29:43.418Z,14.80
2023-05-17T17:32:12.227Z,14.70
2023-05-17T17:34:41.260Z,14.70
2023-05-17T17:37:09.661Z,14.60
2023-05-17T17:39:38.260Z,14.40
2023-05-17T17:42:07.172Z,14.50
2023-05-17T17:44:37.302Z,14.40
2023-05-17T17:47:05.943Z,14.40
2023-05-17T17:49:36.020Z,14.30
2023-05-17T17:52:04.516Z,14.20
2023-05-17T17:54:33.153Z,14.10
2023-05-17T17:57:03.084Z,14.00
2023-05-17T17:59:31.804Z,14.00
2023-05-17T18:02:01.809Z,14.00
2023-05-17T18:04:30.333Z,13.90
2023-05-17T18:06:59.034Z,13.80
2023-05-17T18:09:27.514Z,13.70
2023-05-17T18:11:57.155Z,13.50
2023-05-17T18:14:25.643Z,13.40
2023-05-17T18:16:54.427Z,13.30
2023-05-17T18:19:24.352Z,13.10
2023-05-17T18:21:52.920Z,13.00
2023-05-17T18:24:21.783Z,13.00
2023-05-17T18:26:50.288Z,12.90
2023-05-17T18:29:18.793Z,12.80
2023-05-17T18:31:48.433Z,12.80
2023-05-17T18:34:17.138Z,12.70
2023-05-17T18:36:47.352Z,12.60
2023-05-17T18:39:15.881Z,12.50
2023-05-17T18:41:44.724Z,12.40
2023-05-17T18:44:15.134Z,12.30
2023-05-17T18:46:44.732Z,12.30
2023-05-17T18:49:15.633Z,12.30
2023-05-17T18:51:44.033Z,12.20
2023-05-17T18:54:13.969Z,12.10
2023-05-17T18:56:42.262Z,12.10
2023-05-17T18:59:10.730Z,12.00
2023-05-17T19:01:39.549Z,11.90
2023-05-17T19:04:08.170Z,11.80
2023-05-17T19:06:36.743Z,11.70
2023-05-17T19:09:05.276Z,11.60
2023-05-17T19:11:35.086Z,11.60
2023-05-17T19:14:04.345Z,11.50
2023-05-17T19:16:32.707Z,11.40
2023-05-17T19:19:01.267Z,11.40
2023-05-17T19:21:29.616Z,11.30
2023-05-17T19:23:58.010Z,11.20
2023-05-17T19:26:26.633Z,11.20
2023-05-17T19:28:56.512Z,11.10
2023-05-17T19:31:25.008Z,11.00
2023-05-17T19:33:53.382Z,10.90
2023-05-17T19:36:21.746Z,10.80
2023-05-17T19:38:51.955Z,10.80
2023-05-17T19:41:22.009Z,10.70
2023-05-17T19:43:50.536Z,10.60
2023-05-17T19:46:20.633Z,10.50
2023-05-17T19:48:49.449Z,10.40
2023-05-17T19:51:18.001Z,10.30
2023-05-17T19:53:53.380Z,10.20
2023-05-17T19:56:23.987Z,10.10
2023-05-17T19:58:52.595Z,10.00
2023-05-17T20:01:22.814Z,9.90
2023-05-17T20:03:51.514Z,9.90
2023-05-17T20:06:46.389Z,9.80
2023-05-17T20:09:15.777Z,9.80
2023-05-17T20:11:44.732Z,9.70
2023-05-17T20:14:13.323Z,9.60
2023-05-17T20:16:43.226Z,9.50
2023-05-17T20:19:11.764Z,9.40
2023-05-17T20:21:41.067Z,9.30
2023-05-17T20:24:10.028Z,9.20
2023-05-17T20:26:38.621Z,9.20
2023-05-17T20:29:08.098Z,9.10
2023-05-17T20:31:37.583Z,9.00
2023-05-17T20:34:07.676Z,9.00
2023-05-17T20:36:36.231Z,8.90
2023-05-17T20:39:04.938Z,8.80
2023-05-17T20:41:33.439Z,8.70
2023-05-17T20:44:02.550Z,8.70
2023-05-17T20:46:31.031Z,8.60
2023-05-17T20:49:01.137Z,8.60
2023-05-17T20:51:31.060Z,8.50
2023-05-17T20:53:59.554Z,8.50
2023-05-17T20:56:28.030Z,8.40
2023-05-17T20:58:56.392Z,8.40
2023-05-17T21:01:24.869Z,8.30
2023-05-17T21:03:53.499Z,8.20
2023-05-17T21:06:22.299Z,8.20
2023-05-17T21:08:52.769Z,8.10
2023-05-17T21:11:22.110Z,8.10
2023-05-17T21:13:50.886Z,8.00
2023-05-17T21:16:19.577Z,8.00
2023-05-17T21:18:48.108Z,7.90
2023-05-17T21:21:16.509Z,7.90
2023-05-17T21:23:44.933Z,7.80
2023-05-17T21:26:14.984Z,7.70
2023-05-17T21:28:43.708Z,7.60
2023-05-17T21:31:12.375Z,7.50
2023-05-17T21:33:40.880Z,7.40
2023-05-17T21:36:10.270Z,7.40
2023-05-17T21:38:38.647Z,7.30
2023-05-17T21:41:07.053Z,7.30
2023-05-17T21:43:36.923Z,7.20
2023-05-17T21:46:05.378Z,7.20
2023-05-17T21:48:33.863Z,7.20
2023-05-17T21:51:02.266Z,7.20
2023-05-17T21:53:30.619Z,7.10
2023-05-17T21:56:02.669Z,7.00
2023-05-17T21:58:32.639Z,6.90
2023-05-17T22:01:03.112Z,6.80
2023-05-17T22:03:31.684Z,6.70
2023-05-17T22:06:00.192Z,6.60
2023-05-17T22:08:28.720Z,6.60
2023-05-17T22:10:57.266Z,6.60
2023-05-17T22:13:26.983Z,6.50
2023-05-17T22:15:57.830Z,6.50
2023-05-17T22:18:32.185Z,6.40
2023-05-17T22:21:00.626Z,6.40
2023-05-17T22:23:29.302Z,6.30
2023-05-17T22:26:00.480Z,6.30
2023-05-17T22:28:29.248Z,6.30
2023-05-17T22:30:57.742Z,6.20
2023-05-17T22:33:29.740Z,6.20
2023-05-17T22:35:58.821Z,6.10
2023-05-17T22:38:27.473Z,6.10
2023-05-17T22:40:55.986Z,6.00
2023-05-17T22:43:26.106Z,6.00
2023-05-17T22:45:59.815Z,6.00
2023-05-17T22:48:30.703Z,5.90
2023-05-17T22:51:00.952Z,5.90
2023-05-17T22:53:29.672Z,5.80
2023-05-17T22:55:58.355Z,5.80
2023-05-17T22:58:26.937Z,5.70
2023-05-17T23:00:56.145Z,5.70
2023-05-17T23:03:24.722Z,5.60
2023-05-17T23:06:02.336Z,5.60
2023-05-17T23:08:31.055Z,5.50
2023-05-17T23:10:59.792Z,5.40
2023-05-17T23:13:28.433Z,5.40
2023-05-17T23:15:56.896Z,5.40
2023-05-17T23:18:27.651Z,5.30
2023-05-17T23:20:59.000Z,5.30
2023-05-17T23:23:30.140Z,5.20
2023-05-17T23:25:58.813Z,5.20
2023-05-17T23:28:27.116Z,5.20
2023-05-17T23:30:55.601Z,5.10
2023-05-17T23:33:24.071Z,5.10
2023-05-17T23:35:53.600Z,5.00
2023-05-17T23:38:23.441Z,5.00
2023-05-17T23:40:51.936Z,4.90
2023-05-17T23:43:20.307Z,4.90
2023-05-17T23:45:48.756Z,4.90
2023-05-17T23:48:20.844Z,4.80
2023-05-17T23:50:49.305Z,4.80
2023-05-17T23:53:18.759Z,4.80
2023-05-17T23:55:48.611Z,4.70
2023-05-17T23:58:17.120Z,4.70
